Keiho Maru — JJ4010 — position and weather

sailwx.info

Track history (hours):
 
Tides and Currents Weather Stations Pressure Air Temp Water Temp Dewpoint Dewpoint Depression Visibility Wind Speed Wind Dir Waves Ship Positions

Keiho Maru

Last reported at 2017-Dec-10 09:49 UTC. Time now 2017-Dec-14 00:45 UTC.
Position N 34°41' E 135°12'.

Length 38 m; draft 3.6 m.

Type: Tug. MMSI: 431401501.

Date/timePositionNaut miles runAvg speedWind from/ knotsBaromVisibWave heightAir tempDewpointWater temp
2017-Dec-10 09:49N 34°41' E 135°12'0 0.0
2017-Dec-10 09:30N 34°41' E 135°12'0 0.0
2017-Dec-10 09:00N 34°41' E 135°12'0 0.0
2017-Dec-10 08:30N 34°41' E 135°12'0 0.0
2017-Dec-10 08:00N 34°41' E 135°12'2 4.7
2017-Dec-10 07:30N 34°40' E 135°15'612.6
2017-Dec-10 07:00N 34°36' E 135°20'510.0
2017-Dec-10 06:30N 34°33' E 135°25'0 0.0
2017-Dec-10 06:00N 34°33' E 135°25'0 0.1
2017-Dec-10 05:30N 34°33' E 135°25'1 1.5
2017-Dec-10 05:00N 34°33' E 135°25'2 4.0
2017-Dec-10 04:30N 34°33' E 135°22'3 5.5
2017-Dec-10 04:00N 34°34' E 135°19'4 8.9
2017-Dec-10 03:30N 34°38' E 135°16'4 8.0
2017-Dec-10 03:00N 34°40' E 135°12'0 0.6
2017-Dec-10 02:30N 34°41' E 135°12'0 0.0
2017-Dec-10 02:00N 34°41' E 135°12'0 0.0
2017-Dec-10 01:30N 34°41' E 135°12'0 0.0
2017-Dec-10 01:00N 34°41' E 135°12'0 0.0
2017-Dec-10 00:30N 34°41' E 135°12'0 0.0
2017-Dec-10 00:00N 34°41' E 135°12'0 0.0
2017-Dec-09 23:30N 34°41' E 135°12'3 5.2
2017-Dec-09 23:00N 34°41' E 135°15'1 1.6
2017-Dec-09 22:30N 34°40' E 135°15'0 0.8
2017-Dec-09 22:01N 34°40' E 135°15'3 5.2
2017-Dec-09 21:30N 34°41' E 135°12'0 0.0
2017-Dec-09 21:00N 34°41' E 135°12'0 0.0
2017-Dec-09 20:30N 34°41' E 135°12'0 0.0
2017-Dec-09 14:38N 34°41' E 135°12'0 0.0
2017-Dec-09 14:30N 34°41' E 135°12'3 5.7
2017-Dec-09 14:00N 34°41' E 135°16'0 0.1
2017-Dec-09 13:31N 34°41' E 135°16'1 1.5
2017-Dec-09 13:00N 34°41' E 135°17'0 0.0
2017-Dec-09 12:30N 34°41' E 135°17'0 0.0
2017-Dec-09 12:01N 34°41' E 135°17'0 0.0
2017-Dec-09 11:30N 34°41' E 135°17'0 0.0
2017-Dec-09 11:00N 34°41' E 135°17'0 0.0
2017-Dec-09 10:30N 34°41' E 135°17'1 1.2
2017-Dec-09 10:00N 34°41' E 135°16'1 1.2
2017-Dec-09 09:31N 34°41' E 135°17'0 0.0
2017-Dec-09 09:01N 34°41' E 135°17'0 0.0
2017-Dec-09 08:31N 34°41' E 135°17'0 1.0
2017-Dec-09 08:01N 34°41' E 135°17'4 7.3
2017-Dec-09 07:30N 34°41' E 135°13'1 1.6
2017-Dec-09 07:01N 34°41' E 135°12'0 0.0
2017-Dec-09 06:30N 34°41' E 135°12'0 0.0
2017-Dec-09 06:00N 34°41' E 135°12'0 0.0
2017-Dec-09 05:31N 34°41' E 135°12'0 0.0
2017-Dec-09 05:00N 34°41' E 135°12'0 0.0
2017-Dec-09 04:30N 34°41' E 135°12'0 0.0
2017-Dec-09 04:01N 34°41' E 135°12'0 0.0
2017-Dec-09 03:31N 34°41' E 135°12'0 0.0
2017-Dec-09 03:01N 34°41' E 135°12'0 0.0
2017-Dec-09 02:30N 34°41' E 135°12'0 0.0
2017-Dec-09 02:01N 34°41' E 135°12'0 0.0
2017-Dec-09 01:30N 34°41' E 135°12'0 0.0
2017-Dec-09 01:01N 34°41' E 135°12'0 0.0
2017-Dec-09 00:30N 34°41' E 135°12'0 0.0
2017-Dec-09 00:01N 34°41' E 135°12'3 6.6
2017-Dec-08 23:30N 34°41' E 135°16'1 2.0
2017-Dec-08 23:01N 34°41' E 135°17'1 1.6
2017-Dec-08 22:31N 34°40' E 135°18'0 0.3
2017-Dec-08 22:00N 34°40' E 135°18'3 5.3
2017-Dec-08 21:31N 34°41' E 135°15'2 4.0
2017-Dec-08 21:00N 34°41' E 135°12'0 0.0
2017-Dec-08 06:56N 34°41' E 135°12'0 0.0
2017-Dec-08 06:30N 34°41' E 135°12'0 0.0
2017-Dec-08 06:00N 34°41' E 135°12'0 0.0
2017-Dec-08 05:30N 34°41' E 135°12'3 6.3
2017-Dec-08 05:00N 34°42' E 135°16'1 2.1
2017-Dec-08 04:30N 34°41' E 135°14'2 4.2
2017-Dec-08 04:00N 34°41' E 135°12'0 0.0
2017-Dec-08 03:30N 34°41' E 135°12'0 0.0
2017-Dec-08 03:00N 34°41' E 135°12'0 0.0
2017-Dec-08 02:30N 34°41' E 135°12'0 0.0
2017-Dec-08 02:00N 34°41' E 135°12'0 0.0
2017-Dec-08 01:30N 34°41' E 135°12'0 0.0
2017-Dec-08 01:00N 34°41' E 135°12'0 0.0
2017-Dec-08 00:30N 34°41' E 135°12'0 0.0
2017-Dec-08 00:00N 34°41' E 135°12'0 0.0
2017-Dec-07 23:30N 34°41' E 135°12'0 0.0
2017-Dec-07 23:00N 34°41' E 135°12'0 0.0
2017-Dec-07 12:35N 34°41' E 135°12'0 0.0
2017-Dec-07 12:30N 34°41' E 135°12'3 5.1
2017-Dec-07 12:00N 34°39' E 135°15'1 2.0
2017-Dec-07 11:30N 34°40' E 135°15'1 2.5
2017-Dec-07 11:00N 34°40' E 135°13'0 0.0
2017-Dec-07 10:30N 34°40' E 135°13'0 0.0
2017-Dec-07 10:00N 34°40' E 135°13'0 0.0
2017-Dec-07 09:30N 34°40' E 135°13'0 0.0
2017-Dec-07 09:00N 34°40' E 135°13'0 0.0
2017-Dec-07 08:30N 34°40' E 135°13'0 0.0
2017-Dec-07 08:00N 34°40' E 135°13'0 0.0
2017-Dec-07 07:30N 34°40' E 135°13'1 1.7
2017-Dec-07 07:01N 34°40' E 135°14'1 2.2
2017-Dec-07 06:30N 34°39' E 135°15'0 0.1
2017-Dec-07 06:00N 34°39' E 135°15'0 0.0
2017-Dec-07 05:30N 34°39' E 135°15'0 0.0
2017-Dec-07 05:00N 34°39' E 135°15'713.0
2017-Dec-07 04:30N 34°35' E 135°21'4 8.6
2017-Dec-07 04:01N 34°33' E 135°26'0 0.0
2017-Dec-07 03:30N 34°33' E 135°26'0 0.0
2017-Dec-07 03:01N 34°33' E 135°26'0 0.5
2017-Dec-07 02:30N 34°33' E 135°26'2 3.5
2017-Dec-07 02:00N 34°33' E 135°24'3 6.5
2017-Dec-07 01:30N 34°34' E 135°20'1 2.2
2017-Dec-07 01:00N 34°34' E 135°18'3 6.5
2017-Dec-07 00:30N 34°37' E 135°17'3 5.6
2017-Dec-07 00:01N 34°39' E 135°15'0 0.0
2017-Dec-06 23:30N 34°39' E 135°15'0 0.7
2017-Dec-06 23:00N 34°39' E 135°15'0 0.8
2017-Dec-06 22:30N 34°39' E 135°15'1 2.2
2017-Dec-06 22:00N 34°39' E 135°16'3 5.8
2017-Dec-06 21:31N 34°39' E 135°13'2 3.6
2017-Dec-06 21:00N 34°41' E 135°12'  
2017-Dec-04 10:30N 34°41' E 135°17'1 1.4
2017-Dec-04 10:01N 34°41' E 135°17'4 7.7
2017-Dec-04 09:30N 34°41' E 135°12'0 0.0
2017-Dec-04 09:00N 34°41' E 135°12'0 0.0
2017-Dec-04 08:30N 34°41' E 135°12'0 0.0
2017-Dec-04 08:00N 34°41' E 135°12'0 0.0
2017-Dec-04 07:30N 34°41' E 135°12'0 0.0
2017-Dec-04 07:00N 34°41' E 135°12'2 4.0
2017-Dec-04 06:30N 34°40' E 135°14'0 0.9
2017-Dec-04 06:00N 34°40' E 135°15'1 2.6
2017-Dec-04 05:30N 34°40' E 135°13'0 0.0
2017-Dec-04 05:00N 34°40' E 135°13'0 0.0
2017-Dec-04 04:30N 34°40' E 135°13'0 0.0
2017-Dec-04 04:00N 34°40' E 135°13'0 0.0
2017-Dec-04 03:30N 34°40' E 135°13'0 0.0
2017-Dec-04 03:00N 34°40' E 135°13'0 0.0
2017-Dec-04 02:30N 34°40' E 135°13'1 1.6
2017-Dec-04 02:00N 34°41' E 135°14'3 5.4
2017-Dec-04 01:30N 34°41' E 135°17'1 1.1
2017-Dec-04 01:00N 34°41' E 135°17'0 0.8
2017-Dec-04 00:30N 34°41' E 135°17'0 0.0
2017-Dec-04 00:00N 34°41' E 135°17'0 0.0
2017-Dec-03 23:30N 34°41' E 135°17'2 3.8
2017-Dec-03 23:00N 34°41' E 135°15'0 0.1
2017-Dec-03 22:30N 34°41' E 135°15'1 2.6
2017-Dec-03 22:00N 34°40' E 135°16'3 5.8
2017-Dec-03 21:30N 34°41' E 135°12'0 0.0
2017-Dec-03 21:00N 34°41' E 135°12'0 0.0
2017-Dec-03 05:59N 34°41' E 135°12'0 0.0
2017-Dec-03 05:30N 34°41' E 135°12'0 0.0
2017-Dec-03 05:00N 34°41' E 135°12'0 0.0
2017-Dec-03 04:31N 34°41' E 135°12'0 0.0
2017-Dec-03 04:01N 34°41' E 135°12'0 0.0
2017-Dec-03 03:30N 34°41' E 135°12'0 0.0
2017-Dec-03 03:01N 34°41' E 135°12'0 0.0
2017-Dec-03 02:31N 34°41' E 135°12'0 0.0
2017-Dec-03 02:00N 34°41' E 135°12'2 3.8
2017-Dec-03 01:31N 34°40' E 135°14'0 0.1
2017-Dec-03 01:01N 34°40' E 135°14'0 0.9
2017-Dec-03 00:30N 34°40' E 135°14'0 0.0
2017-Dec-03 00:00N 34°40' E 135°14'0 0.0
2017-Dec-02 23:30N 34°40' E 135°14'0 0.0
2017-Dec-02 23:00N 34°40' E 135°14'0 0.0
2017-Dec-02 22:30N 34°40' E 135°14'0 0.0
2017-Dec-02 22:00N 34°40' E 135°14'1 1.8
2017-Dec-02 21:30N 34°39' E 135°15'0 0.0
2017-Dec-02 21:00N 34°39' E 135°15'2 4.8
2017-Dec-02 20:30N 34°41' E 135°12'0 0.5
2017-Dec-02 20:00N 34°41' E 135°12'0 0.0
2017-Dec-02 09:22N 34°41' E 135°12'2 4.9
2017-Dec-02 09:00N 34°41' E 135°14'613.0
2017-Dec-02 08:31N 34°40' E 135°22'3 5.5
2017-Dec-02 08:00N 34°39' E 135°25'0 0.0
2017-Dec-02 07:30N 34°39' E 135°25'1 1.7
2017-Dec-02 07:00N 34°39' E 135°25'2 3.6
2017-Dec-02 06:31N 34°38' E 135°23'2 4.2
2017-Dec-02 06:01N 34°39' E 135°21'510.1
2017-Dec-02 05:31N 34°41' E 135°15'2 4.9
2017-Dec-02 05:00N 34°41' E 135°12'0 0.0
2017-Dec-02 04:31N 34°41' E 135°12'0 0.0
2017-Dec-02 04:01N 34°41' E 135°12'0 0.0
2017-Dec-02 03:31N 34°41' E 135°12'0 0.0
2017-Dec-02 03:00N 34°41' E 135°12'0 0.0
2017-Dec-02 02:31N 34°41' E 135°12'0 0.0
2017-Dec-02 02:01N 34°41' E 135°12'0 0.0
2017-Dec-02 01:30N 34°41' E 135°12'0 0.0
2017-Dec-02 01:00N 34°41' E 135°12'0 0.0
2017-Dec-02 00:30N 34°41' E 135°12'0 0.1
2017-Dec-02 00:00N 34°40' E 135°12'1 2.3
2017-Dec-01 23:31N 34°41' E 135°13'0 0.7
2017-Dec-01 23:01N 34°40' E 135°14'1 1.2
2017-Dec-01 22:31N 34°40' E 135°14'1 2.3
2017-Dec-01 22:00N 34°40' E 135°16'2 4.7
2017-Dec-01 21:30N 34°41' E 135°13'1 2.0
2017-Dec-01 21:01N 34°41' E 135°12'  
Track history (hours):
 
Tides and Currents Weather Stations Pressure Air Temp Water Temp Dewpoint Dewpoint Depression Visibility Wind Speed Wind Dir Waves Ship Positions

Keiho Maru

Last reported at 2017-Dec-10 09:49 UTC. Time now 2017-Dec-14 00:45 UTC.
Position N 34°41' E 135°12'.

Length 38 m; draft 3.6 m.

Type: Tug. MMSI: 431401501.

Date/timePositionNaut miles runAvg speedWind from/ knotsBaromVisibWave heightAir tempDewpointWater temp
2017-Dec-10 09:49N 34°41' E 135°12'0 0.0
2017-Dec-10 09:30N 34°41' E 135°12'0 0.0
2017-Dec-10 09:00N 34°41' E 135°12'0 0.0
2017-Dec-10 08:30N 34°41' E 135°12'0 0.0
2017-Dec-10 08:00N 34°41' E 135°12'2 4.7
2017-Dec-10 07:30N 34°40' E 135°15'612.6
2017-Dec-10 07:00N 34°36' E 135°20'510.0
2017-Dec-10 06:30N 34°33' E 135°25'0 0.0
2017-Dec-10 06:00N 34°33' E 135°25'0 0.1
2017-Dec-10 05:30N 34°33' E 135°25'1 1.5
2017-Dec-10 05:00N 34°33' E 135°25'2 4.0
2017-Dec-10 04:30N 34°33' E 135°22'3 5.5
2017-Dec-10 04:00N 34°34' E 135°19'4 8.9
2017-Dec-10 03:30N 34°38' E 135°16'4 8.0
2017-Dec-10 03:00N 34°40' E 135°12'0 0.6
2017-Dec-10 02:30N 34°41' E 135°12'0 0.0
2017-Dec-10 02:00N 34°41' E 135°12'0 0.0
2017-Dec-10 01:30N 34°41' E 135°12'0 0.0
2017-Dec-10 01:00N 34°41' E 135°12'0 0.0
2017-Dec-10 00:30N 34°41' E 135°12'0 0.0
2017-Dec-10 00:00N 34°41' E 135°12'0 0.0
2017-Dec-09 23:30N 34°41' E 135°12'3 5.2
2017-Dec-09 23:00N 34°41' E 135°15'1 1.6
2017-Dec-09 22:30N 34°40' E 135°15'0 0.8
2017-Dec-09 22:01N 34°40' E 135°15'3 5.2
2017-Dec-09 21:30N 34°41' E 135°12'0 0.0
2017-Dec-09 21:00N 34°41' E 135°12'0 0.0
2017-Dec-09 20:30N 34°41' E 135°12'0 0.0
2017-Dec-09 14:38N 34°41' E 135°12'0 0.0
2017-Dec-09 14:30N 34°41' E 135°12'3 5.7
2017-Dec-09 14:00N 34°41' E 135°16'0 0.1
2017-Dec-09 13:31N 34°41' E 135°16'1 1.5
2017-Dec-09 13:00N 34°41' E 135°17'0 0.0
2017-Dec-09 12:30N 34°41' E 135°17'0 0.0
2017-Dec-09 12:01N 34°41' E 135°17'0 0.0
2017-Dec-09 11:30N 34°41' E 135°17'0 0.0
2017-Dec-09 11:00N 34°41' E 135°17'0 0.0
2017-Dec-09 10:30N 34°41' E 135°17'1 1.2
2017-Dec-09 10:00N 34°41' E 135°16'1 1.2
2017-Dec-09 09:31N 34°41' E 135°17'0 0.0
2017-Dec-09 09:01N 34°41' E 135°17'0 0.0
2017-Dec-09 08:31N 34°41' E 135°17'0 1.0
2017-Dec-09 08:01N 34°41' E 135°17'4 7.3
2017-Dec-09 07:30N 34°41' E 135°13'1 1.6
2017-Dec-09 07:01N 34°41' E 135°12'0 0.0
2017-Dec-09 06:30N 34°41' E 135°12'0 0.0
2017-Dec-09 06:00N 34°41' E 135°12'0 0.0
2017-Dec-09 05:31N 34°41' E 135°12'0 0.0
2017-Dec-09 05:00N 34°41' E 135°12'0 0.0
2017-Dec-09 04:30N 34°41' E 135°12'0 0.0
2017-Dec-09 04:01N 34°41' E 135°12'0 0.0
2017-Dec-09 03:31N 34°41' E 135°12'0 0.0
2017-Dec-09 03:01N 34°41' E 135°12'0 0.0
2017-Dec-09 02:30N 34°41' E 135°12'0 0.0
2017-Dec-09 02:01N 34°41' E 135°12'0 0.0
2017-Dec-09 01:30N 34°41' E 135°12'0 0.0
2017-Dec-09 01:01N 34°41' E 135°12'0 0.0
2017-Dec-09 00:30N 34°41' E 135°12'0 0.0
2017-Dec-09 00:01N 34°41' E 135°12'3 6.6
2017-Dec-08 23:30N 34°41' E 135°16'1 2.0
2017-Dec-08 23:01N 34°41' E 135°17'1 1.6
2017-Dec-08 22:31N 34°40' E 135°18'0 0.3
2017-Dec-08 22:00N 34°40' E 135°18'3 5.3
2017-Dec-08 21:31N 34°41' E 135°15'2 4.0
2017-Dec-08 21:00N 34°41' E 135°12'0 0.0
2017-Dec-08 06:56N 34°41' E 135°12'0 0.0
2017-Dec-08 06:30N 34°41' E 135°12'0 0.0
2017-Dec-08 06:00N 34°41' E 135°12'0 0.0
2017-Dec-08 05:30N 34°41' E 135°12'3 6.3
2017-Dec-08 05:00N 34°42' E 135°16'1 2.1
2017-Dec-08 04:30N 34°41' E 135°14'2 4.2
2017-Dec-08 04:00N 34°41' E 135°12'0 0.0
2017-Dec-08 03:30N 34°41' E 135°12'0 0.0
2017-Dec-08 03:00N 34°41' E 135°12'0 0.0
2017-Dec-08 02:30N 34°41' E 135°12'0 0.0
2017-Dec-08 02:00N 34°41' E 135°12'0 0.0
2017-Dec-08 01:30N 34°41' E 135°12'0 0.0
2017-Dec-08 01:00N 34°41' E 135°12'0 0.0
2017-Dec-08 00:30N 34°41' E 135°12'0 0.0
2017-Dec-08 00:00N 34°41' E 135°12'0 0.0
2017-Dec-07 23:30N 34°41' E 135°12'0 0.0
2017-Dec-07 23:00N 34°41' E 135°12'0 0.0
2017-Dec-07 12:35N 34°41' E 135°12'0 0.0
2017-Dec-07 12:30N 34°41' E 135°12'3 5.1
2017-Dec-07 12:00N 34°39' E 135°15'1 2.0
2017-Dec-07 11:30N 34°40' E 135°15'1 2.5
2017-Dec-07 11:00N 34°40' E 135°13'0 0.0
2017-Dec-07 10:30N 34°40' E 135°13'0 0.0
2017-Dec-07 10:00N 34°40' E 135°13'0 0.0
2017-Dec-07 09:30N 34°40' E 135°13'0 0.0
2017-Dec-07 09:00N 34°40' E 135°13'0 0.0
2017-Dec-07 08:30N 34°40' E 135°13'0 0.0
2017-Dec-07 08:00N 34°40' E 135°13'0 0.0
2017-Dec-07 07:30N 34°40' E 135°13'1 1.7
2017-Dec-07 07:01N 34°40' E 135°14'1 2.2
2017-Dec-07 06:30N 34°39' E 135°15'0 0.1
2017-Dec-07 06:00N 34°39' E 135°15'0 0.0
2017-Dec-07 05:30N 34°39' E 135°15'0 0.0
2017-Dec-07 05:00N 34°39' E 135°15'713.0
2017-Dec-07 04:30N 34°35' E 135°21'4 8.6
2017-Dec-07 04:01N 34°33' E 135°26'0 0.0
2017-Dec-07 03:30N 34°33' E 135°26'0 0.0
2017-Dec-07 03:01N 34°33' E 135°26'0 0.5
2017-Dec-07 02:30N 34°33' E 135°26'2 3.5
2017-Dec-07 02:00N 34°33' E 135°24'3 6.5
2017-Dec-07 01:30N 34°34' E 135°20'1 2.2
2017-Dec-07 01:00N 34°34' E 135°18'3 6.5
2017-Dec-07 00:30N 34°37' E 135°17'3 5.6
2017-Dec-07 00:01N 34°39' E 135°15'0 0.0
2017-Dec-06 23:30N 34°39' E 135°15'0 0.7
2017-Dec-06 23:00N 34°39' E 135°15'0 0.8
2017-Dec-06 22:30N 34°39' E 135°15'1 2.2
2017-Dec-06 22:00N 34°39' E 135°16'3 5.8
2017-Dec-06 21:31N 34°39' E 135°13'2 3.6
2017-Dec-06 21:00N 34°41' E 135°12'  
2017-Dec-04 10:30N 34°41' E 135°17'1 1.4
2017-Dec-04 10:01N 34°41' E 135°17'4 7.7
2017-Dec-04 09:30N 34°41' E 135°12'0 0.0
2017-Dec-04 09:00N 34°41' E 135°12'0 0.0
2017-Dec-04 08:30N 34°41' E 135°12'0 0.0
2017-Dec-04 08:00N 34°41' E 135°12'0 0.0
2017-Dec-04 07:30N 34°41' E 135°12'0 0.0
2017-Dec-04 07:00N 34°41' E 135°12'2 4.0
2017-Dec-04 06:30N 34°40' E 135°14'0 0.9
2017-Dec-04 06:00N 34°40' E 135°15'1 2.6
2017-Dec-04 05:30N 34°40' E 135°13'0 0.0
2017-Dec-04 05:00N 34°40' E 135°13'0 0.0
2017-Dec-04 04:30N 34°40' E 135°13'0 0.0
2017-Dec-04 04:00N 34°40' E 135°13'0 0.0
2017-Dec-04 03:30N 34°40' E 135°13'0 0.0
2017-Dec-04 03:00N 34°40' E 135°13'0 0.0
2017-Dec-04 02:30N 34°40' E 135°13'1 1.6
2017-Dec-04 02:00N 34°41' E 135°14'3 5.4
2017-Dec-04 01:30N 34°41' E 135°17'1 1.1
2017-Dec-04 01:00N 34°41' E 135°17'0 0.8
2017-Dec-04 00:30N 34°41' E 135°17'0 0.0
2017-Dec-04 00:00N 34°41' E 135°17'0 0.0
2017-Dec-03 23:30N 34°41' E 135°17'2 3.8
2017-Dec-03 23:00N 34°41' E 135°15'0 0.1
2017-Dec-03 22:30N 34°41' E 135°15'1 2.6
2017-Dec-03 22:00N 34°40' E 135°16'3 5.8
2017-Dec-03 21:30N 34°41' E 135°12'0 0.0
2017-Dec-03 21:00N 34°41' E 135°12'0 0.0
2017-Dec-03 05:59N 34°41' E 135°12'0 0.0
2017-Dec-03 05:30N 34°41' E 135°12'0 0.0
2017-Dec-03 05:00N 34°41' E 135°12'0 0.0
2017-Dec-03 04:31N 34°41' E 135°12'0 0.0
2017-Dec-03 04:01N 34°41' E 135°12'0 0.0
2017-Dec-03 03:30N 34°41' E 135°12'0 0.0
2017-Dec-03 03:01N 34°41' E 135°12'0 0.0
2017-Dec-03 02:31N 34°41' E 135°12'0 0.0
2017-Dec-03 02:00N 34°41' E 135°12'2 3.8
2017-Dec-03 01:31N 34°40' E 135°14'0 0.1
2017-Dec-03 01:01N 34°40' E 135°14'0 0.9
2017-Dec-03 00:30N 34°40' E 135°14'0 0.0
2017-Dec-03 00:00N 34°40' E 135°14'0 0.0
2017-Dec-02 23:30N 34°40' E 135°14'0 0.0
2017-Dec-02 23:00N 34°40' E 135°14'0 0.0
2017-Dec-02 22:30N 34°40' E 135°14'0 0.0
2017-Dec-02 22:00N 34°40' E 135°14'1 1.8
2017-Dec-02 21:30N 34°39' E 135°15'0 0.0
2017-Dec-02 21:00N 34°39' E 135°15'2 4.8
2017-Dec-02 20:30N 34°41' E 135°12'0 0.5
2017-Dec-02 20:00N 34°41' E 135°12'0 0.0
2017-Dec-02 09:22N 34°41' E 135°12'2 4.9
2017-Dec-02 09:00N 34°41' E 135°14'613.0
2017-Dec-02 08:31N 34°40' E 135°22'3 5.5
2017-Dec-02 08:00N 34°39' E 135°25'0 0.0
2017-Dec-02 07:30N 34°39' E 135°25'1 1.7
2017-Dec-02 07:00N 34°39' E 135°25'2 3.6
2017-Dec-02 06:31N 34°38' E 135°23'2 4.2
2017-Dec-02 06:01N 34°39' E 135°21'510.1
2017-Dec-02 05:31N 34°41' E 135°15'2 4.9
2017-Dec-02 05:00N 34°41' E 135°12'0 0.0
2017-Dec-02 04:31N 34°41' E 135°12'0 0.0
2017-Dec-02 04:01N 34°41' E 135°12'0 0.0
2017-Dec-02 03:31N 34°41' E 135°12'0 0.0
2017-Dec-02 03:00N 34°41' E 135°12'0 0.0
2017-Dec-02 02:31N 34°41' E 135°12'0 0.0
2017-Dec-02 02:01N 34°41' E 135°12'0 0.0
2017-Dec-02 01:30N 34°41' E 135°12'0 0.0
2017-Dec-02 01:00N 34°41' E 135°12'0 0.0
2017-Dec-02 00:30N 34°41' E 135°12'0 0.1
2017-Dec-02 00:00N 34°40' E 135°12'1 2.3
2017-Dec-01 23:31N 34°41' E 135°13'0 0.7
2017-Dec-01 23:01N 34°40' E 135°14'1 1.2
2017-Dec-01 22:31N 34°40' E 135°14'1 2.3
2017-Dec-01 22:00N 34°40' E 135°16'2 4.7
2017-Dec-01 21:30N 34°41' E 135°13'1 2.0
2017-Dec-01 21:01N 34°41' E 135°12'  

Dump ship's entire track history